Time;durP1;ratioP1;P1;durP2;ratioP2;P2;SDS_P1;SDS_P2;PMS_P1;PMS_P2;Temp;Humidity;BMP_temperature;BMP_pressure;BME280_temperature;BME280_humidity;BME280_pressure;Samples;Min_cycle;Max_cycle;Signal;HPM_P1;HPM_P2
2023/07/25 00:01:06;;;;;;;24.15;14.27;;;;;;;-143.21;51.81;70864.75;5114484;27;20207;-78
2023/07/25 00:03:33;;;;;;;26.33;13.27;;;;;;;-143.21;51.95;70856.81;5108857;27;20204;-78
2023/07/25 00:06:02;;;;;;;26.75;13.75;;;;;;;-143.21;52.15;70866.72;5117043;27;20207;-80
2023/07/25 00:08:28;;;;;;;23.70;13.15;;;;;;;-143.21;52.44;70880.59;5112420;28;22103;-79
2023/07/25 00:10:55;;;;;;;24.30;14.40;;;;;;;-143.21;52.33;70890.50;5116482;27;20207;-78
2023/07/25 00:13:22;;;;;;;23.52;14.15;;;;;;;-143.21;52.78;70888.53;5118770;27;20203;-78
2023/07/25 00:15:50;;;;;;;26.67;13.90;;;;;;;-143.21;53.10;70890.50;5107671;27;20200;-79
2023/07/25 00:18:17;;;;;;;25.90;14.10;;;;;;;-143.21;53.33;70894.47;5112305;27;20203;-79
2023/07/25 00:20:44;;;;;;;25.58;14.52;;;;;;;-143.21;53.06;70886.53;5111957;28;20203;-78
2023/07/25 00:23:11;;;;;;;22.77;14.68;;;;;;;-143.21;53.13;70900.41;5121765;28;20207;-79
2023/07/25 00:25:37;;;;;;;25.27;14.93;;;;;;;-143.21;53.14;70888.53;5119231;27;20197;-79
2023/07/25 00:28:05;;;;;;;27.10;14.15;;;;;;;-143.21;53.64;70880.59;5115484;28;20227;-79
2023/07/25 00:30:31;;;;;;;25.83;15.50;;;;;;;-143.21;53.53;70888.53;5117877;28;20689;-79
2023/07/25 00:32:59;;;;;;;27.67;14.45;;;;;;;-143.21;53.64;70898.44;5112880;28;20200;-79
2023/07/25 00:35:26;;;;;;;23.88;14.50;;;;;;;-143.21;53.63;70908.34;5116864;28;20273;-78
2023/07/25 00:37:53;;;;;;;27.27;14.88;;;;;;;-143.21;54.25;70904.38;5120367;28;20200;-79
2023/07/25 00:40:20;;;;;;;23.98;15.27;;;;;;;-143.21;54.03;70914.31;5114802;27;20207;-78
2023/07/25 00:42:46;;;;;;;30.27;15.27;;;;;;;-143.21;54.30;70916.28;5112548;28;20203;-78
2023/07/25 00:45:13;;;;;;;26.40;15.45;;;;;;;-143.21;54.04;70924.22;5117231;28;20199;-78
2023/07/25 00:47:40;;;;;;;28.00;15.38;;;;;;;-143.21;53.73;70916.28;5119445;28;20230;-78
2023/07/25 00:50:10;;;;;;;24.05;14.75;;;;;;;-143.21;54.41;70918.25;5116776;28;20203;-78
2023/07/25 00:52:37;;;;;;;29.77;14.20;;;;;;;-143.21;54.59;70914.31;5117692;28;20281;-79
2023/07/25 00:55:05;;;;;;;26.00;14.70;;;;;;;-143.21;54.64;70918.25;5107272;28;20212;-80
2023/07/25 00:57:32;;;;;;;23.98;14.63;;;;;;;-143.21;54.88;70916.28;5111442;27;20202;-79
2023/07/25 00:59:58;;;;;;;31.08;14.68;;;;;;;-143.21;55.15;70918.25;5119975;27;20212;-78
2023/07/25 01:02:25;;;;;;;24.38;13.85;;;;;;;-143.21;55.61;70916.28;5112528;27;20215;-78
2023/07/25 01:04:52;;;;;;;22.75;14.55;;;;;;;-143.21;55.51;70924.22;5117397;27;20256;-78
2023/07/25 01:07:22;;;;;;;27.80;15.35;;;;;;;-143.21;55.05;70916.28;5119281;27;20215;-79
2023/07/25 01:09:48;;;;;;;28.38;14.52;;;;;;;-143.21;55.26;70934.13;5113807;27;20214;-79
2023/07/25 01:12:15;;;;;;;24.25;14.95;;;;;;;-143.21;55.76;70948.00;5115442;27;20208;-79
2023/07/25 01:14:42;;;;;;;24.95;15.10;;;;;;;-143.21;56.21;70953.94;5117937;27;20195;-79
2023/07/25 01:17:13;;;;;;;27.83;13.90;;;;;;;-143.21;56.07;70955.94;5113263;27;20219;-79
2023/07/25 01:19:42;;;;;;;32.60;15.75;;;;;;;-143.21;55.83;70961.88;5109184;27;20244;-80
2023/07/25 01:22:09;;;;;;;27.98;15.48;;;;;;;-143.21;55.69;70961.88;5112072;27;20204;-79
2023/07/25 01:24:42;;;;;;;22.20;14.63;;;;;;;-143.21;55.86;70959.91;5112747;27;20206;-80
2023/07/25 01:27:09;;;;;;;31.25;14.95;;;;;;;-143.21;55.22;70957.91;5117781;27;20224;-79
2023/07/25 01:29:35;;;;;;;25.75;14.95;;;;;;;-143.21;55.04;70955.94;5117228;27;20207;-79
2023/07/25 01:32:03;;;;;;;25.13;14.15;;;;;;;-143.21;55.64;70949.97;5115279;27;20219;-80
2023/07/25 01:34:29;;;;;;;23.33;14.57;;;;;;;-143.21;56.30;70948.00;5115114;27;20211;-79
2023/07/25 01:36:56;;;;;;;27.63;14.02;;;;;;;-143.21;56.42;70944.03;5114329;27;20200;-82
2023/07/25 01:39:23;;;;;;;24.85;13.93;;;;;;;-143.21;56.34;70946.03;5115469;27;20204;-81
2023/07/25 01:41:51;;;;;;;25.33;13.13;;;;;;;-143.21;56.29;70948.00;5114382;27;20211;-81
2023/07/25 01:44:18;;;;;;;24.63;13.93;;;;;;;-143.21;56.74;70953.94;5114825;27;20593;-81
2023/07/25 01:46:44;;;;;;;22.95;13.40;;;;;;;-143.21;56.14;70957.91;5111439;27;20229;-81
2023/07/25 01:49:12;;;;;;;24.35;14.05;;;;;;;-143.21;56.07;70969.81;5109263;27;20246;-82
2023/07/25 01:51:39;;;;;;;21.35;13.73;;;;;;;-143.21;56.18;70971.78;5115504;27;20298;-81
2023/07/25 01:54:06;;;;;;;26.25;13.35;;;;;;;-143.21;56.20;70973.78;5118652;27;20210;-81
2023/07/25 01:56:32;;;;;;;27.17;13.40;;;;;;;-143.21;56.15;70967.81;5116651;27;20288;-81
2023/07/25 01:59:01;;;;;;;23.00;13.90;;;;;;;-143.21;55.88;70961.88;5118065;27;20203;-79
2023/07/25 02:01:27;;;;;;;25.38;14.38;;;;;;;-143.21;55.90;70957.91;5118491;27;20245;-79
2023/07/25 02:03:53;;;;;;;20.67;13.95;;;;;;;-143.21;55.64;70969.81;5114005;27;20204;-80
2023/07/25 02:06:20;;;;;;;25.42;14.13;;;;;;;-143.21;55.24;70965.84;5111790;27;20268;-79
2023/07/25 02:08:47;;;;;;;25.90;13.55;;;;;;;-143.21;55.09;70979.72;5113363;27;20219;-79
2023/07/25 02:11:14;;;;;;;20.58;13.18;;;;;;;-143.21;55.40;70993.59;5114336;27;20204;-80
2023/07/25 02:13:40;;;;;;;24.90;14.93;;;;;;;-143.21;55.77;71001.53;5114879;27;20238;-80
2023/07/25 02:16:09;;;;;;;26.27;13.98;;;;;;;-143.21;55.56;71009.44;5111678;27;20210;-80
2023/07/25 02:18:35;;;;;;;22.13;14.35;;;;;;;-143.21;55.73;71033.25;5112299;27;20200;-80
2023/07/25 02:21:02;;;;;;;26.45;13.48;;;;;;;-143.21;56.53;71053.06;5115019;27;20216;-80
2023/07/25 02:23:29;;;;;;;22.50;13.18;;;;;;;-143.21;56.55;71061.00;5115352;27;20207;-79
2023/07/25 02:25:56;;;;;;;27.48;14.65;;;;;;;-143.21;56.75;71074.88;5110975;27;20580;-80
2023/07/25 02:28:22;;;;;;;23.40;14.30;;;;;;;-143.21;56.75;71076.84;5116343;27;20718;-80
2023/07/25 02:30:49;;;;;;;25.75;13.77;;;;;;;-143.21;57.29;71096.69;5114905;27;20206;-80
2023/07/25 02:33:17;;;;;;;23.80;14.68;;;;;;;-143.21;58.03;71112.53;5115320;27;20208;-80
2023/07/25 02:35:44;;;;;;;25.08;13.85;;;;;;;-143.21;58.11;71132.38;5119471;27;20205;-80
2023/07/25 02:38:11;;;;;;;26.92;14.30;;;;;;;-143.21;58.66;71140.28;5113796;27;20649;-80
2023/07/25 02:40:38;;;;;;;22.85;13.68;;;;;;;-143.21;58.67;71136.31;5115252;27;20204;-80
2023/07/25 02:43:07;;;;;;;25.65;14.18;;;;;;;-143.21;58.83;71140.28;5111501;27;20200;-80
2023/07/25 02:45:34;;;;;;;22.77;13.45;;;;;;;-143.21;58.58;71122.44;5109805;27;20211;-80
2023/07/25 02:48:01;;;;;;;23.45;13.40;;;;;;;-143.21;58.39;71130.38;5110546;27;20319;-80
2023/07/25 02:50:29;;;;;;;24.10;13.45;;;;;;;-143.21;58.34;71118.50;5109924;27;20208;-80
2023/07/25 02:52:56;;;;;;;22.92;13.90;;;;;;;-143.21;58.26;71120.47;5113459;27;20211;-80
2023/07/25 02:55:23;;;;;;;27.33;13.00;;;;;;;-143.21;58.29;71114.53;5116735;27;20200;-80
2023/07/25 02:57:50;;;;;;;20.75;13.30;;;;;;;-143.21;58.81;71124.44;5109509;27;20218;-80
2023/07/25 03:00:17;;;;;;;25.50;14.45;;;;;;;-143.21;59.04;71138.31;5109958;27;20218;-80
2023/07/25 03:02:44;;;;;;;33.78;14.75;;;;;;;-143.21;59.28;71148.22;5108911;27;20199;-80
2023/07/25 03:05:10;;;;;;;23.45;14.00;;;;;;;-143.21;59.77;71150.22;5109644;27;20204;-80
2023/07/25 03:07:39;;;;;;;23.77;13.95;;;;;;;-143.21;59.68;71146.25;5116765;27;20199;-80
2023/07/25 03:10:07;;;;;;;24.35;13.93;;;;;;;-143.21;59.29;71138.31;5116593;27;20327;-80
2023/07/25 03:12:34;;;;;;;23.77;14.45;;;;;;;-143.21;59.40;71138.31;5114252;27;20636;-80
2023/07/25 03:15:01;;;;;;;23.83;14.20;;;;;;;-143.21;59.50;71132.38;5114126;27;20210;-80
2023/07/25 03:17:27;;;;;;;24.35;14.10;;;;;;;-143.21;59.27;71130.38;5112189;27;20305;-81
2023/07/25 03:19:54;;;;;;;24.35;13.45;;;;;;;-143.21;59.38;71126.41;5112577;27;20204;-81
2023/07/25 03:22:21;;;;;;;26.10;13.95;;;;;;;-143.21;59.25;71126.41;5109423;27;20222;-79
2023/07/25 03:24:50;;;;;;;29.00;14.45;;;;;;;-143.21;59.28;71128.41;5112542;27;20200;-79
2023/07/25 03:27:17;;;;;;;26.65;13.85;;;;;;;-143.21;59.26;71122.44;5111168;27;20212;-79
2023/07/25 03:29:44;;;;;;;25.80;13.95;;;;;;;-143.21;59.26;71136.31;5110913;27;20318;-79
2023/07/25 03:32:11;;;;;;;30.55;14.65;;;;;;;-143.21;59.29;71134.34;5112956;27;20207;-79
2023/07/25 03:34:38;;;;;;;25.42;14.77;;;;;;;-143.21;59.78;71150.22;5115128;27;20196;-78
2023/07/25 03:37:05;;;;;;;27.25;13.82;;;;;;;-143.21;60.42;71148.22;5117486;27;20207;-79
2023/07/25 03:39:32;;;;;;;27.23;14.27;;;;;;;-143.21;59.87;71158.13;5110994;27;20204;-80
2023/07/25 03:42:00;;;;;;;30.58;14.85;;;;;;;-143.21;60.14;71164.09;5111588;27;20346;-80
2023/07/25 03:44:27;;;;;;;24.83;14.30;;;;;;;-143.21;60.16;71166.06;5089870;27;20965;-80
2023/07/25 03:46:54;;;;;;;28.05;14.13;;;;;;;-143.21;60.41;71162.09;5096564;27;20206;-80
2023/07/25 03:49:21;;;;;;;26.92;14.13;;;;;;;-143.21;60.37;71170.03;5116657;27;20635;-80
2023/07/25 03:51:47;;;;;;;33.95;14.95;;;;;;;-143.21;60.55;71162.09;5110037;27;20292;-80
2023/07/25 03:54:14;;;;;;;24.77;14.45;;;;;;;-143.21;60.38;71170.03;5107819;27;20311;-80
2023/07/25 03:56:41;;;;;;;29.90;15.55;;;;;;;-143.21;60.52;71166.06;5115004;27;20298;-80
2023/07/25 03:59:09;;;;;;;27.77;15.18;;;;;;;-143.21;59.94;71164.09;5112175;27;20215;-79
2023/07/25 04:01:36;;;;;;;31.67;15.57;;;;;;;-143.21;60.43;71156.16;5108314;27;20203;-77
2023/07/25 04:04:03;;;;;;;31.25;15.02;;;;;;;-143.21;59.16;71146.25;5112041;27;20219;-77
2023/07/25 04:06:30;;;;;;;24.60;14.60;;;;;;;-143.21;58.54;71140.28;5108665;27;20211;-77
2023/07/25 04:08:56;;;;;;;29.38;15.10;;;;;;;-143.21;59.41;71140.28;5117041;27;20231;-78
2023/07/25 04:11:23;;;;;;;31.75;15.57;;;;;;;-143.21;59.45;71128.41;5108987;28;20248;-78
2023/07/25 04:13:50;;;;;;;34.30;15.88;;;;;;;-143.21;59.45;71128.41;5115674;27;20199;-78
2023/07/25 04:16:18;;;;;;;24.42;14.80;;;;;;;-143.21;58.71;71126.41;5111520;28;20607;-78
2023/07/25 04:18:45;;;;;;;32.40;15.27;;;;;;;-143.21;59.15;71142.28;5114470;27;20229;-78
2023/07/25 04:21:12;;;;;;;28.25;15.30;;;;;;;-143.21;60.13;71150.22;5111743;28;20215;-78
2023/07/25 04:23:39;;;;;;;32.17;16.73;;;;;;;-143.21;60.67;71156.16;5111383;28;20203;-77
2023/07/25 04:26:05;;;;;;;42.20;17.00;;;;;;;-143.21;60.68;71158.13;5113276;28;20204;-77
2023/07/25 04:28:32;;;;;;;30.90;17.30;;;;;;;-143.21;60.78;71162.09;5120815;27;20223;-77
2023/07/25 04:30:59;;;;;;;29.45;16.17;;;;;;;-143.21;60.89;71166.06;5109714;28;20932;-77
2023/07/25 04:33:27;;;;;;;36.33;16.48;;;;;;;-143.21;60.96;71156.16;5116644;27;20211;-77
2023/07/25 04:35:54;;;;;;;36.40;16.60;;;;;;;-143.21;60.55;71144.25;5119579;27;20207;-77
2023/07/25 04:38:21;;;;;;;29.63;16.52;;;;;;;-143.21;60.96;71132.38;5109654;27;20225;-79
2023/07/25 04:40:47;;;;;;;36.47;16.73;;;;;;;-143.21;60.64;71114.53;5101150;27;20200;-81
2023/07/25 04:43:14;;;;;;;34.80;15.90;;;;;;;-143.21;59.55;71104.59;5117531;27;20209;-80
2023/07/25 04:45:41;;;;;;;38.08;16.85;;;;;;;-143.21;58.89;71080.81;5112034;27;20211;-79
2023/07/25 04:48:08;;;;;;;29.30;15.80;;;;;;;-143.21;58.88;71057.03;5114778;27;20203;-80
2023/07/25 04:50:36;;;;;;;28.73;16.05;;;;;;;-143.21;58.21;71043.16;5117439;27;20199;-79
2023/07/25 04:53:03;;;;;;;26.08;14.68;;;;;;;-143.21;58.45;71051.09;5115506;27;20202;-78
2023/07/25 04:55:30;;;;;;;28.77;15.38;;;;;;;-143.21;58.45;71043.16;5115984;27;20207;-79
2023/07/25 04:57:57;;;;;;;28.48;15.68;;;;;;;-143.21;58.19;71047.13;5116241;27;20211;-78
2023/07/25 05:00:23;;;;;;;22.98;15.20;;;;;;;-143.21;58.29;71053.06;5116170;27;20207;-78
2023/07/25 05:02:51;;;;;;;28.05;15.00;;;;;;;-143.21;58.33;71049.09;5115906;27;20196;-78
2023/07/25 05:05:17;;;;;;;30.05;15.60;;;;;;;-143.21;58.66;71051.09;5121705;27;20674;-79
2023/07/25 05:07:46;;;;;;;30.88;15.90;;;;;;;-143.21;59.21;71053.06;5118034;27;20218;-78
2023/07/25 05:10:12;;;;;;;24.85;14.18;;;;;;;-143.21;59.27;71051.09;5115121;27;20594;-80
2023/07/25 05:12:39;;;;;;;27.50;16.02;;;;;;;-143.21;59.44;71047.13;5112088;27;20208;-79
2023/07/25 05:15:07;;;;;;;28.10;15.27;;;;;;;-143.21;59.54;71029.28;5114805;27;20232;-78
2023/07/25 05:17:33;;;;;;;35.58;16.20;;;;;;;-143.21;58.42;70999.53;5113084;27;20196;-79
2023/07/25 05:20:00;;;;;;;35.75;15.95;;;;;;;-143.21;57.92;70983.69;5111299;27;20206;-78
2023/07/25 05:22:27;;;;;;;30.50;16.23;;;;;;;-143.21;57.79;70965.84;5113355;27;20811;-78
2023/07/25 05:24:55;;;;;;;28.02;15.15;;;;;;;-143.21;57.74;70959.91;5115981;27;20200;-78
2023/07/25 05:27:22;;;;;;;29.42;16.23;;;;;;;-143.21;57.77;70963.84;5118618;27;20210;-78
2023/07/25 05:29:49;;;;;;;28.63;15.65;;;;;;;-143.21;57.50;70959.91;5111671;27;20228;-78
2023/07/25 05:32:15;;;;;;;34.05;16.70;;;;;;;-143.21;57.48;70959.91;5115239;27;20204;-78
2023/07/25 05:34:42;;;;;;;33.80;16.55;;;;;;;-143.21;57.90;70957.91;5118553;27;20207;-78
2023/07/25 05:37:09;;;;;;;30.90;16.08;;;;;;;-143.21;57.70;70959.91;5117832;27;20203;-78
2023/07/25 05:39:36;;;;;;;33.33;15.68;;;;;;;-143.21;57.62;70961.88;5112331;27;20192;-78
2023/07/25 05:42:05;;;;;;;29.23;16.42;;;;;;;-143.21;57.36;70957.91;5115227;27;20203;-79
2023/07/25 05:44:32;;;;;;;28.20;15.90;;;;;;;-143.21;56.93;70944.03;5115671;27;21458;-78
2023/07/25 05:47:00;;;;;;;30.98;16.10;;;;;;;-143.21;56.98;70942.06;5114531;27;20248;-79
2023/07/25 05:49:27;;;;;;;29.83;16.17;;;;;;;-143.21;56.36;70932.13;5117535;27;20292;-80
2023/07/25 05:51:54;;;;;;;34.67;16.85;;;;;;;-143.21;56.18;70934.13;5113752;27;20231;-79
2023/07/25 05:54:21;;;;;;;29.13;16.92;;;;;;;-143.21;55.35;70918.25;5117168;27;20200;-78
2023/07/25 05:56:49;;;;;;;33.05;16.77;;;;;;;-143.21;54.48;70886.53;5114942;27;20204;-80
2023/07/25 05:59:17;;;;;;;35.75;16.20;;;;;;;-143.21;54.22;70870.69;5114382;27;20577;-78
2023/07/25 06:01:44;;;;;;;33.20;16.60;;;;;;;-143.21;54.33;70878.63;5113799;27;20200;-79
2023/07/25 06:04:13;;;;;;;29.45;16.55;;;;;;;-143.21;54.38;70876.63;5114027;27;20203;-79
2023/07/25 06:06:40;;;;;;;29.35;17.02;;;;;;;-143.21;53.77;70854.84;5109913;27;20200;-80
2023/07/25 06:09:07;;;;;;;31.83;16.35;;;;;;;-143.21;53.63;70848.88;5118602;27;20261;-80
2023/07/25 06:11:33;;;;;;;30.52;15.80;;;;;;;-143.21;54.05;70838.97;5118208;27;20264;-80
2023/07/25 06:14:00;;;;;;;29.70;15.55;;;;;;;-143.21;53.34;70838.97;5116953;27;20248;-79
2023/07/25 06:16:28;;;;;;;29.90;15.35;;;;;;;-143.21;53.80;70837.00;5120453;27;20208;-80
2023/07/25 06:18:55;;;;;;;24.00;14.15;;;;;;;-143.21;53.45;70833.03;5113371;27;20196;-80
2023/07/25 06:21:22;;;;;;;30.50;15.27;;;;;;;-143.21;53.49;70829.06;5117530;27;20650;-79
2023/07/25 06:23:49;;;;;;;32.00;14.43;;;;;;;-143.21;53.40;70829.06;5116751;27;20206;-78
2023/07/25 06:26:16;;;;;;;27.70;14.07;;;;;;;-143.21;53.29;70825.09;5115295;27;20208;-79
2023/07/25 06:28:43;;;;;;;34.85;14.68;;;;;;;-143.21;53.50;70815.19;5110849;27;20212;-79
2023/07/25 06:31:10;;;;;;;22.08;13.35;;;;;;;-143.21;53.52;70801.31;5120488;27;20214;-79
2023/07/25 06:33:38;;;;;;;24.95;13.60;;;;;;;-143.21;53.17;70785.44;5110122;27;20207;-78
2023/07/25 06:36:06;;;;;;;35.80;13.68;;;;;;;-143.21;52.97;70761.66;5113494;27;20208;-80
2023/07/25 06:38:33;;;;;;;33.42;14.52;;;;;;;-143.21;52.53;70745.81;5110495;27;20196;-82
2023/07/25 06:40:59;;;;;;;30.35;14.15;;;;;;;-143.21;51.26;70729.94;5110682;27;21494;-84
2023/07/25 06:43:26;;;;;;;23.30;13.45;;;;;;;-143.21;50.89;70704.19;5111152;28;20235;-86
2023/07/25 06:45:54;;;;;;;23.17;11.85;;;;;;;-143.21;49.40;70678.41;5113421;27;20211;-84
2023/07/25 06:48:21;;;;;;;28.15;13.68;;;;;;;-143.21;49.60;70672.47;5110330;27;20295;-83
2023/07/25 06:50:49;;;;;;;25.58;13.57;;;;;;;-143.21;49.42;70654.63;5109689;28;20251;-83
2023/07/25 06:53:16;;;;;;;27.05;14.20;;;;;;;-143.21;48.87;70640.75;5110274;27;20214;-84
2023/07/25 06:55:42;;;;;;;23.42;12.70;;;;;;;-143.21;48.69;70622.91;5112794;27;20826;-84
2023/07/25 06:58:09;;;;;;;20.58;13.00;;;;;;;-143.21;47.93;70620.94;5112971;27;20694;-84
2023/07/25 07:00:37;;;;;;;24.73;13.55;;;;;;;-143.21;47.67;70607.06;5108520;27;20199;-85
2023/07/25 07:03:05;;;;;;;21.17;13.68;;;;;;;-143.21;47.47;70599.13;5110094;27;20219;-85
2023/07/25 07:05:32;;;;;;;34.00;13.65;;;;;;;-143.21;47.40;70591.19;5117264;27;20236;-85
2023/07/25 07:08:00;;;;;;;24.48;13.40;;;;;;;-143.21;47.11;70577.31;5109482;27;20202;-84
2023/07/25 07:10:27;;;;;;;29.42;15.23;;;;;;;-143.21;46.92;70563.44;5115342;27;20232;-84
2023/07/25 07:12:54;;;;;;;26.50;13.38;;;;;;;-143.21;46.06;70571.38;5111272;27;20192;-84
2023/07/25 07:15:24;;;;;;;25.20;14.07;;;;;;;-143.21;45.88;70567.41;5109892;28;20254;-83
2023/07/25 07:17:52;;;;;;;25.38;14.70;;;;;;;-143.21;47.29;70561.47;5109240;28;20200;-84
2023/07/25 07:20:19;;;;;;;23.75;13.75;;;;;;;-143.21;46.02;70547.59;5108576;28;20295;-85
2023/07/25 07:22:46;;;;;;;28.73;14.43;;;;;;;-143.21;46.15;70529.75;5109092;27;20204;-85
2023/07/25 07:25:14;;;;;;;22.98;14.73;;;;;;;-143.21;46.71;70525.78;5116446;27;20211;-83
2023/07/25 07:27:41;;;;;;;27.38;13.45;;;;;;;-143.21;44.60;70519.84;5109331;27;20600;-84
2023/07/25 07:30:09;;;;;;;34.40;14.63;;;;;;;-143.21;45.50;70507.94;5109169;27;20212;-84
2023/07/25 07:32:36;;;;;;;29.35;13.90;;;;;;;-143.21;45.76;70492.09;5105733;28;20586;-85
2023/07/25 07:35:02;;;;;;;29.80;15.23;;;;;;;-143.21;45.37;70492.09;5108877;28;20228;-84
2023/07/25 07:37:29;;;;;;;26.55;14.13;;;;;;;-143.21;45.06;70492.09;5108519;27;20580;-84
2023/07/25 07:39:56;;;;;;;24.25;13.65;;;;;;;-143.21;45.48;70490.09;5108604;27;20200;-83
2023/07/25 07:42:24;;;;;;;28.25;13.95;;;;;;;-143.21;44.19;70482.19;5108305;28;20204;-84
2023/07/25 07:44:51;;;;;;;28.05;14.30;;;;;;;-143.21;45.14;70476.22;5108692;27;20670;-83
2023/07/25 07:47:18;;;;;;;28.98;14.13;;;;;;;-143.21;44.72;70468.31;5108684;28;20200;-84
2023/07/25 07:49:45;;;;;;;30.58;13.50;;;;;;;-143.21;44.14;70462.34;5108764;28;20694;-84
2023/07/25 07:52:12;;;;;;;30.77;13.60;;;;;;;-143.21;44.31;70446.50;5108045;28;20227;-80
2023/07/25 07:54:39;;;;;;;28.55;13.45;;;;;;;-143.21;44.82;70432.63;5114665;27;20203;-81
2023/07/25 07:57:06;;;;;;;30.63;12.82;;;;;;;-143.21;44.19;70414.78;5108348;27;20207;-83
2023/07/25 07:59:34;;;;;;;35.08;14.52;;;;;;;-143.21;43.33;70400.91;5115665;27;20255;-81
2023/07/25 08:02:01;;;;;;;24.38;13.48;;;;;;;-143.21;42.70;70392.97;5112535;27;20295;-83
2023/07/25 08:07:09;;;;;;;26.30;13.85;;;;;;;-143.21;43.13;70375.16;5106597;27;20702;-81
2023/07/25 08:09:36;;;;;;;33.13;14.30;;;;;;;-143.21;43.17;70359.28;5111558;27;20268;-81
2023/07/25 08:12:05;;;;;;;34.03;14.30;;;;;;;-143.21;42.57;70357.31;5111352;28;20196;-80
2023/07/25 08:14:32;;;;;;;26.98;12.77;;;;;;;-143.21;42.16;70353.34;5111246;27;20696;-80
2023/07/25 08:17:00;;;;;;;26.30;12.88;;;;;;;-143.21;42.91;70357.31;5107077;28;20200;-84
2023/07/25 08:19:27;;;;;;;23.70;12.63;;;;;;;-143.21;41.38;70357.31;5107710;27;20199;-82
2023/07/25 08:21:54;;;;;;;20.52;11.23;;;;;;;-143.21;40.52;70359.28;5109176;28;20199;-83
2023/07/25 08:24:21;;;;;;;21.75;12.27;;;;;;;-143.21;41.95;70351.38;5109178;28;20203;-82
2023/07/25 08:26:48;;;;;;;23.25;12.55;;;;;;;-143.21;41.60;70333.53;5109108;28;20195;-83
2023/07/25 08:29:15;;;;;;;23.30;12.77;;;;;;;-143.21;41.75;70321.63;5109230;28;20219;-82
2023/07/25 08:31:42;;;;;;;25.38;11.98;;;;;;;-143.21;41.51;70309.75;5108118;28;20227;-81
2023/07/25 08:34:10;;;;;;;24.92;12.98;;;;;;;-143.21;42.21;70285.97;5108316;28;20196;-77
2023/07/25 08:36:37;;;;;;;27.73;13.10;;;;;;;-143.21;41.71;70270.09;5105708;28;20260;-80
2023/07/25 08:39:03;;;;;;;22.65;12.68;;;;;;;-143.21;41.44;70256.22;5112338;28;20196;-84
2023/07/25 08:41:37;;;;;;;23.13;12.48;;;;;;;-143.21;40.69;70254.25;5109658;28;20245;-82
2023/07/25 08:44:09;;;;;;;18.92;11.73;;;;;;;-143.21;40.13;70250.28;5109603;28;20192;-86
2023/07/25 08:46:36;;;;;;;22.67;11.88;;;;;;;-143.21;41.02;70240.38;5106844;28;20195;-84
2023/07/25 08:49:06;;;;;;;22.40;12.90;;;;;;;-143.21;39.97;70214.59;5108047;28;20204;-82
2023/07/25 08:51:39;;;;;;;21.80;12.80;;;;;;;-143.21;40.33;70218.56;5108089;28;20239;-83
2023/07/25 08:54:11;;;;;;;28.88;12.60;;;;;;;-143.21;40.11;70224.50;5108903;28;20207;-83
2023/07/25 08:56:39;;;;;;;26.27;11.88;;;;;;;-143.21;40.68;70198.75;5105742;28;20565;-83
2023/07/25 08:59:08;;;;;;;23.90;12.90;;;;;;;-143.21;40.07;70172.97;5108350;28;20258;-82
2023/07/25 09:01:35;;;;;;;22.45;11.90;;;;;;;-143.21;39.81;70149.19;5107917;28;20192;-83
2023/07/25 09:04:02;;;;;;;25.92;13.73;;;;;;;-143.21;38.29;70121.47;5107953;28;20227;-83
2023/07/25 09:06:31;;;;;;;26.77;12.63;;;;;;;-143.21;38.39;70105.59;5107793;28;20211;-82
2023/07/25 09:08:59;;;;;;;20.50;11.80;;;;;;;-143.21;37.79;70089.75;5106741;28;20200;-83
2023/07/25 09:11:26;;;;;;;24.27;12.65;;;;;;;-143.21;36.93;70083.81;5110042;28;20223;-82
2023/07/25 09:13:53;;;;;;;22.13;12.27;;;;;;;-143.21;37.18;70081.81;5113025;27;20227;-88
2023/07/25 09:16:20;;;;;;;30.05;12.90;;;;;;;-143.21;37.88;70060.03;5109085;28;20296;-88
2023/07/25 09:18:47;;;;;;;23.98;12.25;;;;;;;-143.21;37.39;70032.28;5111548;28;20204;-89
2023/07/25 09:21:16;;;;;;;17.67;11.43;;;;;;;-143.21;36.50;70010.47;5116754;28;20191;-92
2023/07/25 09:23:51;;;;;;;25.77;11.38;;;;;;;-143.21;36.28;69988.66;5115715;28;20200;-89
2023/07/25 09:26:23;;;;;;;18.98;11.93;;;;;;;-143.21;36.53;69968.84;5137240;27;20207;-89
2023/07/25 09:28:52;;;;;;;22.00;12.25;;;;;;;-143.21;36.45;69962.91;5131044;27;20577;-87
2023/07/25 09:31:20;;;;;;;23.23;11.63;;;;;;;-143.21;36.03;69956.97;5125338;27;20702;-93
2023/07/25 09:33:48;;;;;;;20.20;11.75;;;;;;;-143.21;36.23;69947.06;5121017;27;20203;-91
2023/07/25 09:36:16;;;;;;;23.58;11.95;;;;;;;-143.21;36.71;69921.28;5122354;28;20559;-92
2023/07/25 09:38:50;;;;;;;20.90;11.93;;;;;;;-143.21;35.85;69907.41;5119603;27;20257;-93
2023/07/25 09:41:20;;;;;;;23.70;11.98;;;;;;;-143.21;35.62;69901.47;5121980;27;20195;-91
2023/07/25 09:43:47;;;;;;;25.35;11.93;;;;;;;-143.21;35.73;69883.63;5119724;27;21065;-91
2023/07/25 09:46:14;;;;;;;23.05;11.52;;;;;;;-143.21;35.52;69879.69;5117228;27;20241;-90
2023/07/25 09:48:48;;;;;;;25.88;12.77;;;;;;;-143.21;35.55;69869.78;5118251;27;20301;-91
2023/07/25 09:51:15;;;;;;;29.30;12.38;;;;;;;-143.21;35.11;69863.81;5115222;28;20230;-91
2023/07/25 09:53:43;;;;;;;23.52;11.70;;;;;;;-143.21;35.02;69863.81;5117456;28;20630;-89
2023/07/25 09:56:11;;;;;;;18.88;11.65;;;;;;;-143.21;35.49;69859.84;5113706;27;20203;-89
2023/07/25 09:58:39;;;;;;;19.92;11.25;;;;;;;-143.21;34.99;69840.03;5113256;28;20204;-87
2023/07/25 10:01:08;;;;;;;25.20;11.50;;;;;;;-143.21;33.96;69849.94;5115862;27;20257;-85
2023/07/25 10:03:36;;;;;;;21.33;11.50;;;;;;;-143.21;34.98;69840.03;5110854;28;20204;-88
2023/07/25 10:06:04;;;;;;;23.13;11.70;;;;;;;-143.21;35.21;69814.28;5112739;28;20587;-87
2023/07/25 10:08:32;;;;;;;20.10;11.80;;;;;;;-143.21;34.44;69788.53;5111839;27;20196;-87
2023/07/25 10:10:59;;;;;;;25.02;12.20;;;;;;;-143.21;34.83;69760.78;5110592;27;20650;-89
2023/07/25 10:13:28;;;;;;;20.27;11.95;;;;;;;-143.21;34.29;69740.97;5111649;28;20204;-94
2023/07/25 10:15:57;;;;;;;28.40;12.60;;;;;;;-143.21;33.75;69723.13;5112751;27;20196;-89
2023/07/25 10:18:27;;;;;;;25.65;11.48;;;;;;;-143.21;34.12;69709.25;5110645;28;20208;-90
2023/07/25 10:20:55;;;;;;;25.13;10.63;;;;;;;-143.21;33.46;69703.31;5112581;27;20199;-91
2023/07/25 10:23:32;;;;;;;22.77;11.10;;;;;;;-143.21;33.66;69683.50;5114133;27;20204;-92
2023/07/25 10:26:10;;;;;;;25.13;11.77;;;;;;;-143.21;33.43;69681.50;5115119;27;20654;-86
2023/07/25 10:28:37;;;;;;;20.55;11.48;;;;;;;-143.21;33.80;69661.69;5113393;27;20188;-87
2023/07/25 10:31:08;;;;;;;21.98;11.77;;;;;;;-143.21;33.46;69641.88;5112161;27;20224;-87
2023/07/25 10:33:39;;;;;;;26.52;11.65;;;;;;;-143.21;32.92;69624.03;5110635;28;20192;-89
2023/07/25 10:36:09;;;;;;;22.13;11.50;;;;;;;-143.21;32.48;69594.31;5112039;27;20212;-82
2023/07/25 10:38:40;;;;;;;26.10;11.75;;;;;;;-143.21;33.09;69566.56;5111142;28;20191;-85
2023/07/25 10:41:16;;;;;;;23.13;10.13;;;;;;;-143.21;31.93;69532.88;5107600;27;20227;-83
2023/07/25 10:43:57;;;;;;;21.27;10.82;;;;;;;-143.21;32.20;69499.19;5107935;27;20210;-80
2023/07/25 10:46:28;;;;;;;28.98;11.38;;;;;;;-143.21;31.72;69487.31;5113671;27;20315;-83
2023/07/25 10:48:57;;;;;;;24.15;12.10;;;;;;;-143.21;31.91;69465.50;5109418;27;20208;-79
2023/07/25 10:51:23;;;;;;;22.15;10.70;;;;;;;-143.21;32.19;69449.66;5113198;27;20228;-79
2023/07/25 10:54:07;;;;;;;28.95;11.02;;;;;;;-143.21;31.85;69419.94;5115678;27;20199;-83
2023/07/25 11:00:11;;;;;;;18.90;10.13;;;;;;;-143.21;30.99;69417.97;5108405;27;20753;-85
2023/07/25 11:03:22;;;;;;;22.92;11.23;;;;;;;-143.21;31.50;69421.94;5110169;27;20207;-80
2023/07/25 11:06:29;;;;;;;21.85;10.50;;;;;;;-143.21;30.82;69433.81;5110350;28;20211;-88
2023/07/25 11:12:39;;;;;;;26.85;10.50;;;;;;;-143.21;31.01;69414.00;5104042;27;20239;-84
2023/07/25 11:15:07;;;;;;;25.30;10.50;;;;;;;-143.21;29.78;69437.78;5109416;27;20206;-84